Time;durP1;ratioP1;P1;durP2;ratioP2;P2;SDS_P1;SDS_P2;PMS_P1;PMS_P2;Temp;Humidity;BMP_temperature;BMP_pressure;BME280_temperature;BME280_humidity;BME280_pressure;Samples;Min_cycle;Max_cycle;Signal;HPM_P1;HPM_P2
2022/11/24 00:01:59;;;;;;;5.30;2.95;;;6.40;99.90;;;;;;7626907;19;20018;-68
2022/11/24 00:04:31;;;;;;;9.93;3.08;;;6.40;99.90;;;;;;7620934;19;20117;-69
2022/11/24 00:07:04;;;;;;;4.80;2.35;;;6.40;99.90;;;;;;7624845;19;20019;-68
2022/11/24 00:09:36;;;;;;;11.63;3.00;;;6.50;99.90;;;;;;7618011;19;20022;-69
2022/11/24 00:12:08;;;;;;;10.98;3.50;;;6.50;99.90;;;;;;7612665;19;20022;-68
2022/11/24 00:14:40;;;;;;;11.00;2.75;;;6.50;99.90;;;;;;7618479;19;20019;-69
2022/11/24 00:17:12;;;;;;;9.52;3.03;;;6.40;99.90;;;;;;7619092;19;20024;-68
2022/11/24 00:19:44;;;;;;;5.97;3.15;;;6.40;99.90;;;;;;7613298;19;20025;-69
2022/11/24 00:22:16;;;;;;;9.85;2.85;;;6.50;99.90;;;;;;7618755;19;20014;-69
2022/11/24 00:24:48;;;;;;;7.78;2.45;;;6.50;99.90;;;;;;7617688;19;20060;-68
2022/11/24 00:27:20;;;;;;;9.35;3.13;;;6.50;99.90;;;;;;7615852;19;20022;-69
2022/11/24 00:29:52;;;;;;;7.55;2.85;;;6.50;99.90;;;;;;7618178;19;20026;-68
2022/11/24 00:32:28;;;;;;;9.05;3.22;;;6.50;99.90;;;;;;7613793;19;20986;-69
2022/11/24 00:35:00;;;;;;;8.07;2.50;;;6.50;99.90;;;;;;7617297;19;20018;-69
2022/11/24 00:37:32;;;;;;;9.45;2.85;;;6.50;99.90;;;;;;7617097;19;20505;-69
2022/11/24 00:40:05;;;;;;;12.45;2.80;;;6.50;99.90;;;;;;7610075;19;20022;-69
2022/11/24 00:42:37;;;;;;;8.73;2.73;;;6.50;99.90;;;;;;7606443;19;20030;-68
2022/11/24 00:45:09;;;;;;;15.15;3.13;;;6.50;99.90;;;;;;7619634;19;20514;-68
2022/11/24 00:47:45;;;;;;;6.45;2.35;;;6.40;99.90;;;;;;7609514;19;20545;-68
2022/11/24 00:50:17;;;;;;;6.90;2.30;;;6.40;99.90;;;;;;7611873;19;20772;-69
2022/11/24 00:52:49;;;;;;;10.45;3.10;;;6.40;99.90;;;;;;7589052;19;20015;-69
2022/11/24 00:55:22;;;;;;;10.90;2.55;;;6.30;99.90;;;;;;7604182;19;20015;-69
2022/11/24 00:57:54;;;;;;;8.68;2.78;;;6.40;99.90;;;;;;7601261;19;20010;-69
2022/11/24 01:00:26;;;;;;;11.50;2.30;;;6.40;99.90;;;;;;7610498;19;20030;-69
2022/11/24 01:02:58;;;;;;;16.23;4.03;;;6.50;99.90;;;;;;7616073;19;20014;-69
2022/11/24 01:05:34;;;;;;;15.93;4.18;;;6.50;99.90;;;;;;7614131;19;20056;-69
2022/11/24 01:08:07;;;;;;;13.07;3.65;;;6.60;99.90;;;;;;7603413;19;20048;-67
2022/11/24 01:10:39;;;;;;;13.23;4.10;;;6.50;99.90;;;;;;7593567;19;20032;-67
2022/11/24 01:13:12;;;;;;;10.98;3.72;;;6.50;99.90;;;;;;7606801;19;20019;-67
2022/11/24 01:15:44;;;;;;;30.83;9.40;;;6.40;99.90;;;;;;7620603;19;20829;-68
2022/11/24 01:18:16;;;;;;;27.20;8.30;;;6.40;99.90;;;;;;7601258;19;20287;-67
2022/11/24 01:20:48;;;;;;;36.88;10.63;;;6.40;99.90;;;;;;7606324;19;20094;-68
2022/11/24 01:23:20;;;;;;;46.15;11.32;;;6.40;99.90;;;;;;7616735;19;20094;-68
2022/11/24 01:25:52;;;;;;;40.17;9.30;;;6.40;99.90;;;;;;7613270;19;20033;-67
2022/11/24 01:28:25;;;;;;;25.58;6.25;;;6.40;99.90;;;;;;7620990;19;20119;-68
2022/11/24 01:30:58;;;;;;;20.13;6.32;;;6.40;99.90;;;;;;7604691;19;20011;-68
2022/11/24 01:33:32;;;;;;;14.93;4.28;;;6.30;99.90;;;;;;7608429;19;20056;-68
2022/11/24 01:36:05;;;;;;;22.88;6.05;;;6.30;99.90;;;;;;7616536;19;20102;-67
2022/11/24 01:38:37;;;;;;;15.60;4.37;;;6.20;99.90;;;;;;7611975;19;20122;-68
2022/11/24 01:41:20;;;;;;;12.52;4.07;;;6.20;99.90;;;;;;7605889;19;20042;-68
2022/11/24 01:43:55;;;;;;;8.35;3.00;;;6.30;99.90;;;;;;7610517;19;20018;-67
2022/11/24 01:46:36;;;;;;;10.63;3.17;;;6.30;99.90;;;;;;7617489;19;20562;-67
2022/11/24 01:49:12;;;;;;;10.18;3.03;;;6.30;99.90;;;;;;7606740;19;20375;-68
2022/11/24 01:52:11;;;;;;;7.18;2.75;;;6.20;99.90;;;;;;7617769;19;20379;-68
2022/11/24 01:54:48;;;;;;;12.15;2.67;;;6.40;99.90;;;;;;7621143;19;20018;-68
2022/11/24 01:57:25;;;;;;;11.13;3.20;;;6.50;99.90;;;;;;7616240;19;20015;-67
2022/11/24 02:00:10;;;;;;;12.35;2.25;;;6.40;99.90;;;;;;7620434;19;20015;-68
2022/11/24 02:02:44;;;;;;;6.35;2.35;;;6.40;99.90;;;;;;7623322;19;20048;-67
2022/11/24 02:05:25;;;;;;;7.57;2.03;;;6.40;99.90;;;;;;7616636;19;20835;-68
2022/11/24 02:08:00;;;;;;;15.32;3.97;;;6.50;99.90;;;;;;7609399;19;20017;-68
2022/11/24 02:10:32;;;;;;;10.07;3.17;;;6.40;99.90;;;;;;7608158;19;20025;-68
2022/11/24 02:13:05;;;;;;;4.53;1.80;;;6.30;99.90;;;;;;7616134;19;20014;-66
2022/11/24 02:15:37;;;;;;;11.65;3.55;;;6.30;99.90;;;;;;7608024;19;20025;-68
2022/11/24 02:18:09;;;;;;;12.05;2.67;;;6.30;99.90;;;;;;7613181;19;20366;-68
2022/11/24 02:20:41;;;;;;;10.13;2.85;;;6.30;99.90;;;;;;7603778;19;20125;-67
2022/11/24 02:23:25;;;;;;;7.32;2.60;;;6.40;99.90;;;;;;7607428;19;20107;-68
2022/11/24 02:26:27;;;;;;;13.00;2.88;;;6.40;99.90;;;;;;7602402;19;20057;-68
2022/11/24 02:28:59;;;;;;;5.97;1.67;;;6.40;99.90;;;;;;7613024;19;20033;-67
2022/11/24 02:31:31;;;;;;;6.57;2.38;;;6.40;99.90;;;;;;7617709;19;20018;-68
2022/11/24 02:34:04;;;;;;;10.27;2.40;;;6.40;99.90;;;;;;7609963;19;20014;-67
2022/11/24 02:36:36;;;;;;;5.50;2.13;;;6.40;99.90;;;;;;7610379;19;20029;-68
2022/11/24 02:39:12;;;;;;;7.60;1.88;;;6.40;99.90;;;;;;7614093;19;20018;-68
2022/11/24 02:41:52;;;;;;;9.48;1.98;;;6.30;99.90;;;;;;7605152;19;20035;-67
2022/11/24 02:44:29;;;;;;;7.47;1.70;;;6.40;99.90;;;;;;7605399;19;20053;-68
2022/11/24 02:47:07;;;;;;;5.20;1.83;;;6.30;99.90;;;;;;7603396;19;20052;-67
2022/11/24 02:49:39;;;;;;;3.38;1.73;;;6.30;99.90;;;;;;7616853;19;20018;-69
2022/11/24 02:52:11;;;;;;;5.20;1.50;;;6.30;99.90;;;;;;7619375;19;20010;-69
2022/11/24 02:54:43;;;;;;;7.22;1.52;;;6.30;99.90;;;;;;7618470;19;20099;-67
2022/11/24 02:57:18;;;;;;;8.70;1.50;;;6.40;99.90;;;;;;7603666;19;20010;-68
2022/11/24 02:59:50;;;;;;;3.60;1.27;;;6.40;99.90;;;;;;7602509;19;20022;-70
2022/11/24 03:02:22;;;;;;;2.70;1.55;;;6.40;99.90;;;;;;7609545;19;20025;-69
2022/11/24 03:04:54;;;;;;;2.00;1.05;;;6.40;99.90;;;;;;7614890;19;20014;-67
2022/11/24 03:07:27;;;;;;;3.97;1.15;;;6.40;99.90;;;;;;7616332;19;20015;-67
2022/11/24 03:09:59;;;;;;;5.05;1.00;;;6.50;99.90;;;;;;7598141;19;20891;-68
2022/11/24 03:12:31;;;;;;;6.57;1.17;;;6.40;99.90;;;;;;7620829;19;20383;-69
2022/11/24 03:15:04;;;;;;;3.80;1.63;;;6.40;99.90;;;;;;7601991;19;20533;-68
2022/11/24 03:17:36;;;;;;;7.35;1.70;;;6.40;99.90;;;;;;7607615;19;20661;-68
2022/11/24 03:20:09;;;;;;;3.08;1.40;;;6.40;99.90;;;;;;7613271;19;20026;-67
2022/11/24 03:22:41;;;;;;;3.83;1.10;;;6.40;99.90;;;;;;7618760;19;20826;-67
2022/11/24 03:25:13;;;;;;;3.85;1.27;;;6.50;99.90;;;;;;7619884;19;20271;-69
2022/11/24 03:27:46;;;;;;;3.28;1.15;;;6.40;99.90;;;;;;7613648;19;20038;-69
2022/11/24 03:30:18;;;;;;;6.70;1.75;;;6.40;99.90;;;;;;7603196;19;20018;-69
2022/11/24 03:32:52;;;;;;;3.20;1.52;;;6.40;99.90;;;;;;7613241;19;20689;-70
2022/11/24 03:35:24;;;;;;;5.28;1.80;;;6.50;99.90;;;;;;7609263;19;20030;-69
2022/11/24 03:37:56;;;;;;;3.45;0.95;;;6.50;99.90;;;;;;7613240;19;20384;-69
2022/11/24 03:40:29;;;;;;;4.38;1.30;;;6.50;99.90;;;;;;7613537;19;20107;-69
2022/11/24 03:43:00;;;;;;;4.15;1.00;;;6.50;99.90;;;;;;7618968;19;20470;-68
2022/11/24 03:45:32;;;;;;;4.47;1.25;;;6.40;99.90;;;;;;7607580;19;20587;-70
2022/11/24 03:48:20;;;;;;;5.50;1.33;;;6.40;99.90;;;;;;7607132;19;20047;-69
2022/11/24 03:50:57;;;;;;;3.83;1.00;;;6.40;99.90;;;;;;7617429;19;20014;-70
2022/11/24 03:53:31;;;;;;;7.25;1.52;;;6.40;99.90;;;;;;7608097;19;20022;-69
2022/11/24 03:56:03;;;;;;;4.45;1.20;;;6.40;99.90;;;;;;7607123;19;20085;-69
2022/11/24 03:58:35;;;;;;;5.80;1.20;;;6.40;99.90;;;;;;7602984;19;20022;-68
2022/11/24 04:01:07;;;;;;;5.22;1.20;;;6.50;99.90;;;;;;7615333;19;20026;-69
2022/11/24 04:03:40;;;;;;;2.92;1.15;;;6.40;99.90;;;;;;7619117;19;20014;-69
2022/11/24 04:06:12;;;;;;;3.22;1.23;;;6.30;99.90;;;;;;7579309;19;20014;-69
2022/11/24 04:08:44;;;;;;;3.67;1.10;;;6.30;99.90;;;;;;7599694;19;20056;-70
2022/11/24 04:14:07;;;;;;;6.07;1.05;;;6.40;99.90;;;;;;7608456;19;20018;-70
2022/11/24 04:16:44;;;;;;;4.05;1.35;;;6.40;99.90;;;;;;7600534;19;20539;-69
2022/11/24 04:19:16;;;;;;;5.45;1.40;;;6.50;99.90;;;;;;7606086;19;20376;-69
2022/11/24 04:21:48;;;;;;;6.95;1.40;;;6.40;99.90;;;;;;7609073;19;20021;-69
2022/11/24 04:24:20;;;;;;;2.33;0.95;;;6.40;99.90;;;;;;7601879;19;20033;-67
2022/11/24 04:26:53;;;;;;;4.35;1.55;;;6.50;99.90;;;;;;7608988;19;20087;-68
2022/11/24 04:29:25;;;;;;;4.15;1.70;;;6.40;99.90;;;;;;7600175;19;20026;-68
2022/11/24 04:31:57;;;;;;;5.85;1.20;;;6.40;99.90;;;;;;7574515;19;20010;-68
2022/11/24 04:34:29;;;;;;;5.97;1.00;;;6.30;99.90;;;;;;7568862;19;20038;-69
2022/11/24 04:37:01;;;;;;;8.52;1.70;;;6.40;99.90;;;;;;7584844;19;20025;-69
2022/11/24 04:39:33;;;;;;;3.30;1.45;;;6.30;99.90;;;;;;7579035;19;20055;-68
2022/11/24 04:42:05;;;;;;;4.90;1.45;;;6.30;99.90;;;;;;7569486;19;20014;-69
2022/11/24 04:44:38;;;;;;;4.78;1.80;;;6.50;99.90;;;;;;7569153;19;20936;-69
2022/11/24 04:47:17;;;;;;;3.38;1.50;;;6.40;99.90;;;;;;7597488;19;20023;-68
2022/11/24 04:49:49;;;;;;;10.02;1.65;;;6.40;99.90;;;;;;7596466;19;20014;-68
2022/11/24 04:52:23;;;;;;;5.90;1.20;;;6.40;99.90;;;;;;7609964;19;20029;-69
2022/11/24 04:54:55;;;;;;;5.32;1.23;;;6.50;99.90;;;;;;7593277;19;20290;-68
2022/11/24 04:57:27;;;;;;;3.88;1.40;;;6.50;99.90;;;;;;7606114;19;20026;-68
2022/11/24 04:59:59;;;;;;;8.38;1.30;;;6.40;99.90;;;;;;7596439;19;20015;-68
2022/11/24 05:02:31;;;;;;;4.10;1.45;;;6.40;99.90;;;;;;7581445;19;20010;-68
2022/11/24 05:05:04;;;;;;;5.60;1.98;;;6.50;99.90;;;;;;7577316;19;20030;-70
2022/11/24 05:07:36;;;;;;;4.60;1.52;;;6.40;99.90;;;;;;7577336;19;20007;-70
2022/11/24 05:13:02;;;;;;;11.98;1.88;;;6.50;99.90;;;;;;7554368;19;20022;-70
2022/11/24 05:15:36;;;;;;;3.28;1.40;;;6.40;99.90;;;;;;7578090;19;20493;-69
2022/11/24 05:18:11;;;;;;;4.93;1.58;;;6.40;99.90;;;;;;7566558;19;20029;-69
2022/11/24 05:20:43;;;;;;;6.63;2.00;;;6.40;99.90;;;;;;7536829;19;20114;-69
2022/11/24 05:23:16;;;;;;;12.65;2.80;;;6.40;99.90;;;;;;7582074;19;20570;-69
2022/11/24 05:25:48;;;;;;;7.28;2.20;;;6.40;99.90;;;;;;7582606;19;20023;-69
2022/11/24 05:28:20;;;;;;;8.82;2.75;;;6.50;99.90;;;;;;7569689;19;20019;-66
2022/11/24 05:30:52;;;;;;;8.75;2.33;;;6.60;99.90;;;;;;7542835;19;20014;-67
2022/11/24 05:33:27;;;;;;;7.20;1.85;;;6.60;99.90;;;;;;7552378;19;20098;-67
2022/11/24 05:36:04;;;;;;;5.75;2.17;;;6.60;99.90;;;;;;7543060;19;20011;-67
2022/11/24 05:38:36;;;;;;;8.88;2.90;;;6.60;99.90;;;;;;7527016;19;20018;-66
2022/11/24 05:41:08;;;;;;;9.48;3.08;;;6.60;99.90;;;;;;7513391;19;20539;-67
2022/11/24 05:43:40;;;;;;;12.05;2.55;;;6.60;99.90;;;;;;7566891;19;20019;-69
2022/11/24 05:46:12;;;;;;;6.28;2.13;;;6.60;99.90;;;;;;7559629;19;20025;-68
2022/11/24 05:48:45;;;;;;;10.50;2.35;;;6.60;99.90;;;;;;7590157;19;20015;-69
2022/11/24 05:51:17;;;;;;;11.13;2.50;;;6.60;99.90;;;;;;7522277;19;20093;-69
2022/11/24 05:53:49;;;;;;;11.55;4.25;;;6.60;99.90;;;;;;7534569;19;20015;-69
2022/11/24 05:56:21;;;;;;;8.65;3.00;;;6.60;99.90;;;;;;7549996;19;20022;-67
2022/11/24 05:58:54;;;;;;;5.93;1.77;;;6.60;99.90;;;;;;7529084;19;20017;-66
2022/11/24 06:01:26;;;;;;;11.53;3.27;;;6.60;99.90;;;;;;7549387;19;20054;-68
2022/11/24 06:03:58;;;;;;;9.75;2.45;;;6.60;99.90;;;;;;7561721;19;20052;-66
2022/11/24 06:06:30;;;;;;;13.27;3.75;;;6.60;99.90;;;;;;7590287;19;20018;-69
2022/11/24 06:09:03;;;;;;;8.45;2.10;;;6.60;99.90;;;;;;7583083;19;20018;-68
2022/11/24 06:11:35;;;;;;;9.00;2.75;;;6.60;99.90;;;;;;7576260;19;20014;-68
2022/11/24 06:14:09;;;;;;;11.45;2.28;;;6.70;99.90;;;;;;7562830;19;20469;-70
2022/11/24 06:16:42;;;;;;;8.48;2.67;;;6.70;99.90;;;;;;7576502;19;20018;-67
2022/11/24 06:19:14;;;;;;;9.57;2.45;;;6.80;99.90;;;;;;7576168;19;20045;-71
2022/11/24 06:21:47;;;;;;;8.73;1.85;;;6.70;99.90;;;;;;7573318;19;20051;-67
2022/11/24 06:24:19;;;;;;;16.48;2.92;;;6.90;99.90;;;;;;7532860;19;20069;-69
2022/11/24 06:26:51;;;;;;;8.35;2.15;;;6.90;99.90;;;;;;7566613;19;20022;-69
2022/11/24 06:29:24;;;;;;;15.85;2.67;;;6.90;99.90;;;;;;7570009;19;20041;-68
2022/11/24 06:31:56;;;;;;;8.77;1.52;;;6.80;99.90;;;;;;7552126;19;20035;-69
2022/11/24 06:34:28;;;;;;;18.40;2.95;;;6.90;99.90;;;;;;7565348;19;20477;-69
2022/11/24 06:37:00;;;;;;;7.65;1.35;;;6.90;99.90;;;;;;7602164;19;20018;-69
2022/11/24 06:39:32;;;;;;;14.70;2.40;;;7.00;99.90;;;;;;7620702;19;20023;-69
2022/11/24 06:42:04;;;;;;;9.45;2.55;;;7.00;99.90;;;;;;7615613;19;20019;-69
2022/11/24 06:44:36;;;;;;;11.13;2.40;;;7.00;99.90;;;;;;7619599;19;20048;-70
2022/11/24 06:47:08;;;;;;;7.53;1.98;;;6.90;99.90;;;;;;7613297;19;20019;-69
2022/11/24 06:49:40;;;;;;;12.20;2.72;;;6.90;99.90;;;;;;7617356;19;20032;-67
2022/11/24 06:52:12;;;;;;;21.75;3.03;;;6.90;99.90;;;;;;7616051;19;20577;-69
2022/11/24 06:54:45;;;;;;;10.07;2.90;;;6.90;99.90;;;;;;7619441;19;20040;-69
2022/11/24 06:57:17;;;;;;;17.35;5.35;;;6.90;99.90;;;;;;7620202;19;20014;-70
2022/11/24 06:59:49;;;;;;;19.90;5.40;;;6.90;99.90;;;;;;7615980;19;20030;-70
2022/11/24 07:02:21;;;;;;;19.25;4.72;;;6.80;99.90;;;;;;7616839;19;20586;-70
2022/11/24 07:04:53;;;;;;;12.63;3.45;;;6.80;99.90;;;;;;7618235;19;20015;-70
2022/11/24 07:07:25;;;;;;;12.20;4.65;;;6.90;99.90;;;;;;7614085;19;20467;-69
2022/11/24 07:09:58;;;;;;;9.57;2.72;;;6.80;99.90;;;;;;7616525;19;20014;-70
2022/11/24 07:12:34;;;;;;;14.88;3.47;;;7.00;99.90;;;;;;7596406;19;21014;-68
2022/11/24 07:15:07;;;;;;;12.45;2.22;;;6.90;99.90;;;;;;7583915;19;20026;-69
2022/11/24 07:17:40;;;;;;;;;;;7.00;99.90;;;;;;7616045;19;20021;-68
2022/11/24 07:20:12;;;;;;;10.90;2.30;;;7.00;99.90;;;;;;7602192;19;19922;-69
2022/11/24 07:22:44;;;;;;;9.55;2.03;;;7.10;99.90;;;;;;7601018;19;20014;-69
2022/11/24 07:25:17;;;;;;;5.10;1.77;;;7.10;99.90;;;;;;7591571;19;20055;-69
2022/11/24 07:27:49;;;;;;;12.30;2.55;;;7.20;99.90;;;;;;7593413;19;20575;-68
2022/11/24 07:30:21;;;;;;;9.80;2.38;;;7.10;99.90;;;;;;7578474;19;20080;-67
2022/11/24 07:33:00;;;;;;;14.98;2.70;;;7.10;99.90;;;;;;7597510;19;20014;-67
2022/11/24 07:35:32;;;;;;;14.82;2.20;;;7.00;99.90;;;;;;7599002;19;20938;-68
2022/11/24 07:38:04;;;;;;;12.00;2.20;;;7.00;99.90;;;;;;7613415;19;20569;-67
2022/11/24 07:40:36;;;;;;;11.85;2.03;;;7.00;99.90;;;;;;7591485;19;21147;-67
2022/11/24 07:43:08;;;;;;;10.65;2.10;;;7.10;99.90;;;;;;7581431;19;20006;-67
2022/11/24 07:45:41;;;;;;;12.85;2.13;;;7.10;99.90;;;;;;7576265;19;20024;-69
2022/11/24 07:48:14;;;;;;;5.45;1.80;;;7.10;99.90;;;;;;7604082;19;20041;-70
2022/11/24 07:50:46;;;;;;;14.20;2.93;;;7.20;99.90;;;;;;7586647;19;20063;-69
2022/11/24 07:53:26;;;;;;;6.43;1.70;;;7.10;99.90;;;;;;7588716;19;20295;-69
2022/11/24 07:56:01;;;;;;;8.87;2.10;;;7.30;99.90;;;;;;7583057;19;20010;-70
2022/11/24 07:58:34;;;;;;;7.95;2.10;;;7.30;99.90;;;;;;7574839;19;20006;-69
2022/11/24 08:01:15;;;;;;;4.93;1.40;;;7.30;99.90;;;;;;7602856;19;20029;-69
2022/11/24 08:03:48;;;;;;;17.20;2.63;;;7.40;99.90;;;;;;7608242;19;20014;-71
2022/11/24 08:06:20;;;;;;;7.80;2.03;;;7.40;99.90;;;;;;7611197;19;20018;-69
2022/11/24 08:09:00;;;;;;;13.80;2.00;;;7.50;99.90;;;;;;7600865;19;20520;-70
2022/11/24 08:11:33;;;;;;;5.97;2.38;;;7.50;99.90;;;;;;7590675;19;20089;-69
2022/11/24 08:14:05;;;;;;;7.00;1.67;;;7.50;99.90;;;;;;7569459;19;20019;-69
2022/11/24 08:16:38;;;;;;;11.52;2.55;;;7.60;99.90;;;;;;7604165;19;20074;-69
2022/11/24 08:19:10;;;;;;;8.57;1.60;;;7.70;99.90;;;;;;7618985;19;20023;-70
2022/11/24 08:21:42;;;;;;;9.00;2.05;;;7.90;99.90;;;;;;7618856;19;20027;-69
2022/11/24 08:24:15;;;;;;;9.90;2.50;;;7.90;99.90;;;;;;7617199;19;20014;-69
2022/11/24 08:26:48;;;;;;;7.30;1.97;;;7.90;99.90;;;;;;7614593;19;20528;-69
2022/11/24 08:29:20;;;;;;;9.80;2.33;;;7.90;99.90;;;;;;7618445;19;20600;-69
2022/11/24 08:31:52;;;;;;;6.32;1.80;;;8.00;99.90;;;;;;7619479;19;20019;-68
2022/11/24 08:34:25;;;;;;;11.93;2.22;;;8.10;99.90;;;;;;7618962;19;20023;-69
2022/11/24 08:36:57;;;;;;;15.63;2.20;;;8.10;99.90;;;;;;7615023;19;20022;-69
2022/11/24 08:39:29;;;;;;;12.50;2.63;;;8.20;99.90;;;;;;7616561;19;20010;-69
2022/11/24 08:42:01;;;;;;;15.43;2.30;;;8.20;99.90;;;;;;7618622;19;20557;-70
2022/11/24 08:44:33;;;;;;;11.40;2.45;;;8.20;99.90;;;;;;7613686;19;20490;-69
2022/11/24 08:47:06;;;;;;;16.60;2.70;;;8.20;99.90;;;;;;7617583;19;20640;-69
2022/11/24 08:49:38;;;;;;;10.70;2.20;;;8.20;99.90;;;;;;7616867;19;20014;-69
2022/11/24 08:52:10;;;;;;;8.55;1.83;;;8.30;99.90;;;;;;7619779;19;20093;-70
2022/11/24 08:54:43;;;;;;;4.88;1.98;;;8.40;99.90;;;;;;7611439;19;20015;-70
2022/11/24 08:57:16;;;;;;;11.93;2.08;;;8.40;99.90;;;;;;7609000;19;20014;-70
2022/11/24 08:59:52;;;;;;;11.82;2.22;;;8.40;99.90;;;;;;7609076;19;20036;-69
2022/11/24 09:02:24;;;;;;;9.65;2.15;;;8.40;99.90;;;;;;7603278;19;20010;-68
2022/11/24 09:04:56;;;;;;;13.32;2.75;;;8.50;99.90;;;;;;7611559;19;20022;-70
2022/11/24 09:07:28;;;;;;;8.18;2.47;;;8.50;99.90;;;;;;7593477;19;20071;-70
2022/11/24 09:10:01;;;;;;;7.78;2.10;;;8.50;99.90;;;;;;7610496;19;20015;-71
2022/11/24 09:12:33;;;;;;;6.28;1.90;;;8.60;99.90;;;;;;7611546;19;20019;-69
2022/11/24 09:15:06;;;;;;;10.20;2.17;;;8.60;99.90;;;;;;7610291;19;20029;-69
2022/11/24 09:17:38;;;;;;;12.63;2.80;;;8.60;99.90;;;;;;7615218;19;20019;-69
2022/11/24 09:20:11;;;;;;;13.70;2.65;;;8.60;99.90;;;;;;7611619;19;20023;-69
2022/11/24 09:22:43;;;;;;;6.78;2.08;;;8.60;99.90;;;;;;7613689;19;20022;-70
2022/11/24 09:25:16;;;;;;;14.82;2.17;;;8.60;99.90;;;;;;7615313;19;20030;-70
2022/11/24 09:27:49;;;;;;;9.80;2.43;;;8.60;99.90;;;;;;7610312;19;20035;-70
2022/11/24 09:30:22;;;;;;;8.15;2.00;;;8.50;99.90;;;;;;7601460;19;20019;-69
2022/11/24 09:32:55;;;;;;;17.20;2.53;;;8.50;99.90;;;;;;7619419;19;20023;-70
2022/11/24 09:35:27;;;;;;;12.38;2.78;;;8.60;99.90;;;;;;7617338;19;20027;-71
2022/11/24 09:37:59;;;;;;;7.55;2.97;;;8.70;99.90;;;;;;7623035;19;20035;-69
2022/11/24 09:40:32;;;;;;;10.75;2.75;;;8.70;99.90;;;;;;7619667;19;20097;-70
2022/11/24 09:43:13;;;;;;;9.98;3.22;;;8.70;99.90;;;;;;7623083;19;20497;-69
2022/11/24 09:45:53;;;;;;;13.10;2.50;;;8.90;99.90;;;;;;7625978;19;20043;-69
2022/11/24 09:48:44;;;;;;;14.82;2.55;;;8.80;99.90;;;;;;7624180;19;20011;-70
2022/11/24 09:51:21;;;;;;;14.05;2.33;;;8.80;99.90;;;;;;7625036;19;20426;-70
2022/11/24 09:54:08;;;;;;;7.78;2.13;;;8.90;99.90;;;;;;7614933;19;20044;-70
2022/11/24 09:56:41;;;;;;;11.85;1.95;;;8.80;99.90;;;;;;7617691;19;20079;-69
2022/11/24 09:59:21;;;;;;;9.97;2.47;;;8.90;99.90;;;;;;7620926;19;20367;-69
2022/11/24 10:01:54;;;;;;;11.52;2.10;;;9.00;99.90;;;;;;7625541;19;20322;-69
2022/11/24 10:04:32;;;;;;;11.43;1.80;;;9.00;99.90;;;;;;7617504;19;20275;-69
2022/11/24 10:07:10;;;;;;;14.18;2.55;;;9.00;99.90;;;;;;7616206;19;20035;-69
2022/11/24 10:10:07;;;;;;;11.40;2.38;;;9.10;99.90;;;;;;7611590;19;20447;-69
2022/11/24 10:12:42;;;;;;;5.47;1.83;;;9.20;99.90;;;;;;7614129;19;20062;-70
2022/11/24 10:15:21;;;;;;;14.18;2.25;;;9.40;99.50;;;;;;7598196;19;20074;-69
2022/11/24 10:18:15;;;;;;;13.15;2.42;;;9.40;99.10;;;;;;7591593;19;20051;-70
2022/11/24 10:21:16;;;;;;;15.32;3.45;;;9.50;99.20;;;;;;7590250;19;20026;-69
2022/11/24 10:24:07;;;;;;;11.60;1.60;;;9.60;98.30;;;;;;7584511;19;20026;-69
2022/11/24 10:26:49;;;;;;;10.00;1.70;;;9.50;98.30;;;;;;7603315;19;20014;-69
2022/11/24 10:29:33;;;;;;;10.80;1.42;;;9.40;98.50;;;;;;7581479;19;20022;-69
2022/11/24 10:32:24;;;;;;;9.38;1.80;;;9.30;99.60;;;;;;7586144;19;20018;-70
2022/11/24 10:35:01;;;;;;;5.82;1.45;;;9.00;99.90;;;;;;7584054;19;20018;-70
2022/11/24 10:37:41;;;;;;;5.53;1.42;;;8.80;99.90;;;;;;7585670;19;20006;-70
2022/11/24 10:40:21;;;;;;;7.20;1.40;;;8.70;99.90;;;;;;7592904;19;20014;-69
2022/11/24 10:43:13;;;;;;;10.02;2.20;;;8.40;99.90;;;;;;7593121;19;20015;-70
2022/11/24 10:45:46;;;;;;;10.40;2.22;;;8.30;99.90;;;;;;7610110;19;20007;-70
2022/11/24 10:48:24;;;;;;;6.90;1.80;;;8.10;99.90;;;;;;7616059;19;20105;-69
2022/11/24 10:51:25;;;;;;;16.95;2.30;;;8.10;99.90;;;;;;7617594;19;20018;-68
2022/11/24 10:54:03;;;;;;;12.05;2.10;;;7.90;99.90;;;;;;7616094;19;20487;-68
2022/11/24 10:56:40;;;;;;;13.40;2.55;;;7.70;99.90;;;;;;7618038;19;20616;-68
2022/11/24 10:59:33;;;;;;;10.45;2.65;;;7.60;99.90;;;;;;7591754;19;20024;-67
2022/11/24 11:02:27;;;;;;;7.63;2.15;;;7.40;99.90;;;;;;7591666;19;25338;-68
2022/11/24 11:05:19;;;;;;;;;;;7.30;99.90;;;;;;7583489;19;20021;-68
2022/11/24 11:08:12;;;;;;;4.03;1.30;;;7.00;99.90;;;;;;7600154;19;19945;-68
2022/11/24 11:10:48;;;;;;;8.02;1.42;;;7.00;99.90;;;;;;7614616;19;20728;-70
2022/11/24 11:13:22;;;;;;;6.68;1.40;;;7.00;99.90;;;;;;7614125;19;20458;-67
2022/11/24 11:15:56;;;;;;;7.28;1.98;;;6.70;99.90;;;;;;7605489;19;20050;-68
2022/11/24 11:18:32;;;;;;;7.32;1.42;;;6.50;99.90;;;;;;7587553;19;20926;-68
2022/11/24 11:21:04;;;;;;;11.48;1.80;;;6.50;99.90;;;;;;7588743;19;20028;-68
2022/11/24 11:23:44;;;;;;;5.45;1.52;;;6.50;99.90;;;;;;7590259;19;20022;-67
2022/11/24 11:26:21;;;;;;;5.57;1.20;;;6.50;99.90;;;;;;7584218;19;20102;-68
2022/11/24 11:29:07;;;;;;;9.43;2.40;;;6.60;99.90;;;;;;7596501;19;20022;-68
2022/11/24 11:32:03;;;;;;;14.63;5.15;;;6.60;99.90;;;;;;7592095;19;20007;-68
2022/11/24 11:34:56;;;;;;;8.48;2.20;;;6.60;99.90;;;;;;7578427;19;20014;-70
2022/11/24 11:37:32;;;;;;;21.80;5.63;;;6.70;99.90;;;;;;7598696;19;20097;-68
2022/11/24 11:40:12;;;;;;;24.13;6.90;;;6.70;99.90;;;;;;7568228;19;20358;-70
2022/11/24 11:42:52;;;;;;;14.55;5.13;;;6.60;99.90;;;;;;7581940;19;20105;-69
2022/11/24 11:45:36;;;;;;;10.32;1.88;;;6.50;99.90;;;;;;7594435;19;20018;-69
2022/11/24 11:48:14;;;;;;;12.05;2.55;;;6.50;99.90;;;;;;7587487;19;20011;-69
2022/11/24 11:51:31;;;;;;;4.60;2.10;;;6.60;99.90;;;;;;7576727;19;20509;-69
2022/11/24 11:54:17;;;;;;;11.82;3.33;;;6.60;99.90;;;;;;7611788;19;20030;-69
2022/11/24 11:57:06;;;;;;;15.10;3.63;;;6.50;99.90;;;;;;7611122;19;20014;-69
2022/11/24 12:00:13;;;;;;;6.45;4.13;;;6.50;99.90;;;;;;7598824;19;20740;-69
2022/11/24 12:02:48;;;;;;;11.85;5.65;;;6.60;99.90;;;;;;7618403;19;20022;-69
2022/11/24 12:05:45;;;;;;;9.85;3.53;;;6.60;99.90;;;;;;7612062;19;20021;-68
2022/11/24 12:08:40;;;;;;;14.65;6.43;;;6.50;99.90;;;;;;7609091;19;20018;-68
2022/11/24 12:11:52;;;;;;;13.38;4.10;;;6.50;99.90;;;;;;7597813;19;21086;-68
2022/11/24 12:14:46;;;;;;;13.50;3.90;;;6.60;99.90;;;;;;7580344;19;20609;-69
2022/11/24 12:17:27;;;;;;;;;;;6.60;99.90;;;;;;7575969;19;20034;-68
2022/11/24 12:20:22;;;;;;;14.52;6.75;;;6.60;99.90;;;;;;7572162;19;19925;-68
2022/11/24 12:23:01;;;;;;;27.27;15.15;;;6.60;99.90;;;;;;7590736;19;20775;-69
2022/11/24 12:25:54;;;;;;;20.05;8.85;;;6.60;99.90;;;;;;7568801;19;20014;-69
2022/11/24 12:29:00;;;;;;;6.90;2.70;;;6.70;99.90;;;;;;7581320;19;20682;-68
2022/11/24 12:31:44;;;;;;;5.68;2.10;;;6.70;99.90;;;;;;7587561;19;20544;-69
2022/11/24 12:34:34;;;;;;;3.25;1.42;;;6.60;99.90;;;;;;7599110;19;20368;-69
2022/11/24 12:37:14;;;;;;;5.88;1.65;;;6.60;99.90;;;;;;7567804;19;20010;-69
2022/11/24 12:40:08;;;;;;;8.02;1.48;;;6.50;99.90;;;;;;7573516;19;20693;-68
2022/11/24 12:42:59;;;;;;;6.53;1.73;;;6.50;99.90;;;;;;7582923;19;20022;-69
2022/11/24 12:45:33;;;;;;;4.20;1.52;;;6.60;99.90;;;;;;7581861;19;20626;-69
2022/11/24 12:48:24;;;;;;;;;;;6.60;99.90;;;;;;7596550;19;20098;-68
2022/11/24 12:50:57;;;;;;;5.70;2.10;;;6.60;99.90;;;;;;7583958;19;19928;-69
2022/11/24 12:53:36;;;;;;;5.63;1.63;;;6.60;99.90;;;;;;7576835;19;20515;-68
2022/11/24 12:56:14;;;;;;;5.88;2.03;;;6.70;99.90;;;;;;7597104;19;20025;-69
2022/11/24 12:59:10;;;;;;;4.72;2.65;;;6.80;99.90;;;;;;7561431;19;20008;-69
2022/11/24 13:02:11;;;;;;;7.22;2.22;;;6.90;99.90;;;;;;7594592;19;20038;-68
2022/11/24 13:05:44;;;;;;;5.50;2.42;;;7.00;99.90;;;;;;7601309;19;20479;-69
2022/11/24 13:08:17;;;;;;;10.80;3.28;;;6.90;99.90;;;;;;7590395;19;20015;-68
2022/11/24 13:10:50;;;;;;;4.72;2.42;;;6.90;99.90;;;;;;7616238;19;20025;-68
2022/11/24 13:14:05;;;;;;;8.57;2.90;;;6.90;99.90;;;;;;7603727;19;20617;-69
2022/11/24 13:16:57;;;;;;;6.72;2.00;;;6.90;99.90;;;;;;7576896;19;20412;-71
2022/11/24 13:19:49;;;;;;;2.88;1.80;;;7.00;99.90;;;;;;7578715;19;20014;-71
2022/11/24 13:22:24;;;;;;;8.20;2.83;;;7.10;99.90;;;;;;7594148;19;20019;-70
2022/11/24 13:25:17;;;;;;;8.43;2.40;;;7.00;99.90;;;;;;7576644;19;20060;-70
2022/11/24 13:27:52;;;;;;;6.17;2.63;;;7.00;99.90;;;;;;7580923;19;20007;-69
2022/11/24 13:30:33;;;;;;;7.75;2.65;;;7.00;99.90;;;;;;7574679;19;20018;-69
2022/11/24 13:33:27;;;;;;;9.77;3.38;;;7.00;99.90;;;;;;7593664;19;20046;-69
2022/11/24 13:36:06;;;;;;;8.75;2.97;;;7.00;99.90;;;;;;7608989;19;20108;-69
2022/11/24 13:38:49;;;;;;;11.93;4.07;;;7.00;99.90;;;;;;7596965;19;20514;-69
2022/11/24 13:41:31;;;;;;;9.13;4.10;;;7.00;99.90;;;;;;7572188;19;20014;-69
2022/11/24 13:44:12;;;;;;;14.02;4.22;;;7.00;99.90;;;;;;7565096;19;20015;-70
2022/11/24 13:47:06;;;;;;;8.23;3.05;;;7.00;99.90;;;;;;7552617;19;20977;-70
2022/11/24 13:49:49;;;;;;;8.38;3.33;;;7.10;99.90;;;;;;7556585;19;20014;-70